Time;durP1;ratioP1;P1;durP2;ratioP2;P2;SDS_P1;SDS_P2;PMS_P1;PMS_P2;Temp;Humidity;BMP_temperature;BMP_pressure;BME280_temperature;BME280_humidity;BME280_pressure;Samples;Min_cycle;Max_cycle;Signal;HPM_P1;HPM_P2
2021/08/21 00:01:54;;;;;;;15.98;8.68;;;;;;;16.43;85.68;101492.44;4981311;28;20072;-67
2021/08/21 00:04:21;;;;;;;13.45;8.10;;;;;;;16.46;85.90;101482.69;4984504;28;20054;-66
2021/08/21 00:06:49;;;;;;;13.98;7.95;;;;;;;16.44;86.30;101486.28;4977044;28;20050;-67
2021/08/21 00:09:15;;;;;;;15.60;7.57;;;;;;;16.43;86.21;101485.41;4977125;28;20042;-67
2021/08/21 00:11:42;;;;;;;12.15;7.68;;;;;;;16.40;86.30;101488.13;4981948;28;20538;-68
2021/08/21 00:14:08;;;;;;;11.57;6.97;;;;;;;16.39;86.08;101491.66;4981725;28;20054;-68
2021/08/21 00:16:35;;;;;;;13.93;7.82;;;;;;;16.34;86.11;101493.56;4981229;28;20054;-67
2021/08/21 00:19:02;;;;;;;10.27;6.45;;;;;;;16.30;86.10;101490.19;4988166;28;20049;-68
2021/08/21 00:21:28;;;;;;;12.98;6.43;;;;;;;16.28;86.16;101496.41;4982959;28;20042;-67
2021/08/21 00:23:56;;;;;;;10.23;6.18;;;;;;;16.28;86.20;101488.50;4980690;28;20096;-68
2021/08/21 00:26:22;;;;;;;10.50;6.30;;;;;;;16.25;86.29;101489.47;4988276;28;20058;-68
2021/08/21 00:28:49;;;;;;;10.48;6.03;;;;;;;16.20;86.21;101491.38;4978206;28;20042;-67
2021/08/21 00:31:15;;;;;;;9.25;6.20;;;;;;;16.21;86.13;101489.63;4979659;28;20105;-64
2021/08/21 00:33:42;;;;;;;8.52;5.93;;;;;;;16.20;86.49;101485.28;4983465;28;20085;-67
2021/08/21 00:36:08;;;;;;;8.63;5.70;;;;;;;16.22;86.35;101486.94;4978697;28;20050;-68
2021/08/21 00:38:35;;;;;;;10.43;5.60;;;;;;;16.21;86.64;101487.00;4984757;28;20050;-68
2021/08/21 00:41:03;;;;;;;8.05;6.05;;;;;;;16.17;87.14;101487.09;4980155;28;20054;-68
2021/08/21 00:43:31;;;;;;;9.65;6.65;;;;;;;16.16;87.25;101492.38;4976710;28;20046;-67
2021/08/21 00:45:57;;;;;;;12.82;6.07;;;;;;;16.15;87.01;101483.63;4976855;28;20151;-67
2021/08/21 00:48:24;;;;;;;8.85;5.93;;;;;;;16.12;87.10;101480.25;4981907;28;20134;-67
2021/08/21 00:50:50;;;;;;;9.50;5.88;;;;;;;16.07;87.19;101483.03;4980169;28;20047;-68
2021/08/21 00:53:16;;;;;;;9.35;6.28;;;;;;;16.04;87.39;101482.25;4982697;28;20046;-67
2021/08/21 00:55:43;;;;;;;12.98;6.40;;;;;;;16.00;87.00;101473.63;4979278;28;20046;-67
2021/08/21 00:58:12;;;;;;;12.75;6.25;;;;;;;15.96;86.71;101477.22;4980301;28;20688;-68
2021/08/21 01:00:38;;;;;;;10.38;5.88;;;;;;;15.91;86.79;101479.16;4981066;28;21152;-68
2021/08/21 01:03:05;;;;;;;10.05;5.88;;;;;;;15.91;86.59;101476.53;4983524;28;20126;-67
2021/08/21 01:05:32;;;;;;;9.05;5.95;;;;;;;15.87;86.55;101477.50;4982065;28;20055;-67
2021/08/21 01:07:58;;;;;;;9.07;5.78;;;;;;;15.78;86.50;101474.22;4977557;28;20050;-67
2021/08/21 01:10:24;;;;;;;11.07;5.75;;;;;;;15.76;86.54;101472.56;4982467;28;20480;-67
2021/08/21 01:12:55;;;;;;;10.68;5.78;;;;;;;15.73;86.52;101476.09;4976182;28;20054;-67
2021/08/21 01:15:24;;;;;;;10.32;5.82;;;;;;;15.65;86.68;101470.22;4983250;28;20133;-68
2021/08/21 01:17:51;;;;;;;10.05;6.10;;;;;;;15.57;86.62;101472.22;4982692;28;20500;-67
2021/08/21 01:20:18;;;;;;;9.50;6.07;;;;;;;15.55;87.12;101475.72;4982932;28;20039;-67
2021/08/21 01:22:45;;;;;;;11.60;7.00;;;;;;;15.48;87.10;101475.94;4984159;28;20057;-67
2021/08/21 01:25:13;;;;;;;10.88;6.15;;;;;;;15.50;87.30;101468.91;4984592;28;20053;-68
2021/08/21 01:27:41;;;;;;;12.18;5.72;;;;;;;15.54;87.35;101479.25;4975691;28;20050;-67
2021/08/21 01:30:09;;;;;;;12.85;6.47;;;;;;;15.58;87.25;101474.78;4979956;28;20431;-67
2021/08/21 01:32:36;;;;;;;11.10;6.80;;;;;;;15.57;86.82;101478.34;4981036;28;20068;-67
2021/08/21 01:35:02;;;;;;;9.50;6.72;;;;;;;15.55;86.98;101475.72;4984534;28;20053;-67
2021/08/21 01:37:29;;;;;;;10.30;6.78;;;;;;;15.48;87.14;101470.69;4980212;28;20047;-67
2021/08/21 01:39:57;;;;;;;8.38;6.05;;;;;;;15.36;87.66;101475.41;4980553;28;20042;-67
2021/08/21 01:42:24;;;;;;;11.07;6.90;;;;;;;15.39;87.13;101477.91;4975605;28;20456;-67
2021/08/21 01:44:54;;;;;;;11.35;6.35;;;;;;;15.43;87.19;101476.06;4983300;28;20096;-66
2021/08/21 01:47:21;;;;;;;8.85;6.18;;;;;;;15.45;87.12;101481.28;4976756;28;20058;-67
2021/08/21 01:49:53;;;;;;;10.30;6.10;;;;;;;15.44;86.83;101479.56;4985696;28;20399;-66
2021/08/21 01:52:20;;;;;;;10.32;6.88;;;;;;;15.44;87.31;101479.56;4987821;28;20059;-67
2021/08/21 01:54:46;;;;;;;11.23;7.57;;;;;;;15.38;87.44;101481.44;4984100;28;20513;-66
2021/08/21 01:57:13;;;;;;;14.27;7.47;;;;;;;15.36;87.70;101479.78;4975515;28;20050;-67
2021/08/21 01:59:41;;;;;;;12.38;6.78;;;;;;;15.37;87.37;101471.84;4983842;28;20092;-67
2021/08/21 02:02:12;;;;;;;13.70;6.95;;;;;;;15.34;87.68;101476.31;4971242;28;20062;-67
2021/08/21 02:04:38;;;;;;;10.88;6.13;;;;;;;15.33;87.27;101478.09;4978473;28;20050;-67
2021/08/21 02:07:05;;;;;;;9.18;6.45;;;;;;;15.38;87.09;101480.59;4984975;28;20434;-66
2021/08/21 02:09:33;;;;;;;10.32;6.57;;;;;;;15.36;87.11;101471.91;4989963;28;20053;-67
2021/08/21 02:12:01;;;;;;;10.85;6.90;;;;;;;15.34;87.31;101466.72;4986134;28;20509;-67
2021/08/21 02:14:28;;;;;;;13.77;7.50;;;;;;;15.29;87.44;101470.38;5032105;22;20049;-67
2021/08/21 02:16:57;;;;;;;9.48;6.45;;;;;;;15.23;87.89;101469.63;5018708;28;20208;-67
2021/08/21 02:19:25;;;;;;;11.27;7.32;;;;;;;15.28;87.83;101463.41;5029532;28;20072;-67
2021/08/21 02:21:52;;;;;;;12.77;7.20;;;;;;;15.24;88.10;101466.09;5019796;28;20508;-68
2021/08/21 02:24:24;;;;;;;13.98;7.43;;;;;;;15.26;87.90;101465.19;5019144;28;20053;-66
2021/08/21 02:26:50;;;;;;;11.05;6.50;;;;;;;15.24;87.66;101466.09;5018735;28;21262;-67
2021/08/21 02:29:17;;;;;;;17.08;7.53;;;;;;;15.24;87.31;101466.09;5026182;28;20655;-67
2021/08/21 02:31:43;;;;;;;11.15;7.00;;;;;;;15.26;87.24;101467.81;5024848;28;20053;-67
2021/08/21 02:34:10;;;;;;;13.32;7.22;;;;;;;15.24;87.14;101463.47;5025057;28;20201;-67
2021/08/21 02:36:40;;;;;;;9.77;6.40;;;;;;;15.19;87.68;101467.13;5026609;28;20056;-67
2021/08/21 02:39:06;;;;;;;9.15;6.90;;;;;;;15.19;87.32;101454.88;5030632;28;20057;-67
2021/08/21 02:41:33;;;;;;;11.90;7.35;;;;;;;15.17;87.61;101459.31;5026573;28;20045;-67
2021/08/21 02:43:59;;;;;;;8.98;6.25;;;;;;;15.13;87.91;101460.28;5023475;28;20057;-67
2021/08/21 02:46:25;;;;;;;11.75;7.50;;;;;;;15.07;88.16;101460.44;5025131;28;20045;-67
2021/08/21 02:48:52;;;;;;;11.52;7.75;;;;;;;15.07;87.95;101456.06;5029802;28;20049;-67
2021/08/21 02:51:18;;;;;;;9.70;6.93;;;;;;;15.09;88.25;101453.41;5028834;28;20042;-66
2021/08/21 02:53:46;;;;;;;10.70;7.20;;;;;;;15.07;88.13;101450.81;5031050;28;20061;-66
2021/08/21 02:56:12;;;;;;;10.13;6.95;;;;;;;15.07;87.91;101453.44;5018412;28;20091;-66
2021/08/21 02:58:39;;;;;;;14.45;7.80;;;;;;;15.05;88.41;101457.88;5023446;28;20053;-68
2021/08/21 03:01:05;;;;;;;12.98;8.45;;;;;;;15.07;88.66;101455.22;5027100;28;20050;-67
2021/08/21 03:03:32;;;;;;;11.95;6.70;;;;;;;14.99;88.35;101452.78;5025653;28;20487;-67
2021/08/21 03:05:59;;;;;;;11.70;7.07;;;;;;;14.97;88.17;101448.50;5025209;28;20049;-66
2021/08/21 03:08:25;;;;;;;11.55;7.43;;;;;;;14.92;88.67;101449.47;5027704;28;20447;-67
2021/08/21 03:10:53;;;;;;;11.05;7.72;;;;;;;14.90;88.66;101447.78;5025969;28;20442;-66
2021/08/21 03:13:19;;;;;;;11.68;7.43;;;;;;;14.89;89.01;101452.19;5021324;28;21094;-67
2021/08/21 03:15:46;;;;;;;10.10;6.47;;;;;;;14.92;88.76;101461.72;5021786;28;20049;-66
2021/08/21 03:18:12;;;;;;;10.43;6.28;;;;;;;14.90;88.21;101453.91;5029061;28;20064;-69
2021/08/21 03:20:39;;;;;;;11.80;6.80;;;;;;;14.92;87.86;101456.47;5027713;28;20045;-67
2021/08/21 03:23:05;;;;;;;10.32;6.40;;;;;;;14.93;88.19;101463.44;5029969;28;20059;-67
2021/08/21 03:25:32;;;;;;;10.20;6.45;;;;;;;14.90;88.16;101461.75;5022914;28;20046;-67
2021/08/21 03:27:59;;;;;;;10.63;6.93;;;;;;;14.91;88.52;101463.47;5023677;28;20092;-67
2021/08/21 03:30:26;;;;;;;12.25;7.50;;;;;;;14.88;88.82;101455.69;5017247;28;20052;-67
2021/08/21 03:32:52;;;;;;;12.55;7.18;;;;;;;14.81;88.67;101462.00;5027010;28;20499;-67
2021/08/21 03:35:19;;;;;;;10.63;7.60;;;;;;;14.78;88.73;101459.44;5029014;28;20050;-67
2021/08/21 03:37:45;;;;;;;12.48;7.43;;;;;;;14.80;89.38;101462.91;5029478;28;20050;-66
2021/08/21 03:40:12;;;;;;;12.48;8.15;;;;;;;14.82;88.98;101457.59;5028383;28;20478;-67
2021/08/21 03:42:39;;;;;;;12.95;7.30;;;;;;;14.82;89.25;101455.00;5018803;28;20178;-67
2021/08/21 03:45:08;;;;;;;12.38;7.40;;;;;;;14.79;88.77;101458.56;5028059;28;20147;-66
2021/08/21 03:47:34;;;;;;;11.57;8.20;;;;;;;14.80;88.75;101457.66;5026069;28;20053;-67
2021/08/21 03:50:00;;;;;;;8.40;6.10;;;;;;;14.74;89.15;101458.66;5029612;28;20048;-67
2021/08/21 03:52:27;;;;;;;9.98;7.03;;;;;;;14.78;88.81;101451.59;5025798;28;20041;-67
2021/08/21 03:54:54;;;;;;;10.52;6.70;;;;;;;14.75;88.61;101452.53;5026712;28;20095;-67
2021/08/21 03:57:21;;;;;;;9.82;7.25;;;;;;;14.79;88.58;101447.19;5025443;28;21862;-67
2021/08/21 03:59:47;;;;;;;12.60;7.25;;;;;;;14.76;88.86;101450.75;5021101;28;20099;-68
2021/08/21 04:02:15;;;;;;;12.27;7.03;;;;;;;14.73;89.04;101458.69;5019731;28;20041;-66
2021/08/21 04:04:42;;;;;;;12.02;7.45;;;;;;;14.64;89.21;101458.88;5034847;28;20053;-67
2021/08/21 04:07:08;;;;;;;13.82;7.03;;;;;;;14.64;89.70;101458.88;5036228;28;20049;-67
2021/08/21 04:09:35;;;;;;;10.68;6.57;;;;;;;14.70;89.71;101459.63;5032867;28;20046;-67
2021/08/21 04:12:01;;;;;;;13.90;6.80;;;;;;;14.72;89.58;101460.47;5027183;28;20052;-67
2021/08/21 04:14:27;;;;;;;9.48;7.05;;;;;;;14.75;89.65;101455.16;5019121;28;20052;-67
2021/08/21 04:16:54;;;;;;;9.23;6.90;;;;;;;14.78;89.79;101459.44;5021567;28;20065;-67
2021/08/21 04:19:22;;;;;;;11.63;7.38;;;;;;;14.73;89.77;101454.31;5037309;28;20049;-67
2021/08/21 04:21:48;;;;;;;13.20;6.70;;;;;;;14.77;89.95;101449.88;5036170;28;20041;-67
2021/08/21 04:24:14;;;;;;;12.52;7.43;;;;;;;14.79;90.24;101452.44;5031013;28;20503;-67
2021/08/21 04:26:41;;;;;;;15.38;8.10;;;;;;;14.81;90.59;101456.75;5027000;28;20061;-67
2021/08/21 04:29:10;;;;;;;14.93;8.63;;;;;;;14.80;90.96;101454.16;5016833;28;20049;-67
2021/08/21 04:31:37;;;;;;;13.52;7.78;;;;;;;14.85;91.45;101450.53;5022207;28;20056;-67
2021/08/21 04:34:03;;;;;;;15.68;7.80;;;;;;;14.91;91.29;101447.78;5041190;28;20127;-67
2021/08/21 04:36:31;;;;;;;12.02;8.27;;;;;;;14.96;91.56;101455.50;5029840;28;20045;-67
2021/08/21 04:38:57;;;;;;;14.77;7.82;;;;;;;14.99;91.66;101455.41;5027196;28;20049;-68
2021/08/21 04:41:24;;;;;;;15.00;7.65;;;;;;;14.96;91.95;101454.63;5027521;28;20426;-68
2021/08/21 04:43:50;;;;;;;10.80;7.22;;;;;;;15.00;91.97;101456.28;5020649;28;20056;-67
2021/08/21 04:46:17;;;;;;;13.20;7.22;;;;;;;15.02;92.19;101454.50;5033757;28;20075;-67
2021/08/21 04:48:43;;;;;;;16.05;8.20;;;;;;;15.10;92.37;101460.38;5027160;28;20069;-67
2021/08/21 04:51:10;;;;;;;10.98;7.38;;;;;;;15.16;92.54;101457.59;5030501;28;20045;-67
2021/08/21 04:53:37;;;;;;;11.27;7.88;;;;;;;15.24;92.50;101458.22;5027383;28;20107;-67
2021/08/21 04:56:05;;;;;;;13.15;8.20;;;;;;;15.28;92.61;101461.63;5029173;28;20060;-67
2021/08/21 04:58:31;;;;;;;15.45;8.13;;;;;;;15.27;92.51;101461.69;5023004;28;20408;-67
2021/08/21 05:00:58;;;;;;;14.18;8.10;;;;;;;15.34;92.79;101464.09;5030695;28;20123;-66
2021/08/21 05:03:24;;;;;;;15.20;9.18;;;;;;;15.38;92.91;101464.88;5023935;28;20087;-67
2021/08/21 05:05:51;;;;;;;11.90;8.00;;;;;;;15.38;93.16;101464.88;5026762;28;20049;-67
2021/08/21 05:08:17;;;;;;;17.15;8.40;;;;;;;15.44;93.00;101464.69;5026566;28;20083;-67
2021/08/21 05:10:45;;;;;;;12.52;8.70;;;;;;;15.53;92.92;101469.66;5025493;28;20049;-67
2021/08/21 05:13:11;;;;;;;17.67;7.95;;;;;;;15.56;93.06;101474.00;5013175;28;20053;-67
2021/08/21 05:15:39;;;;;;;11.60;8.10;;;;;;;15.63;92.86;101466.78;5020140;28;20056;-67
2021/08/21 05:18:06;;;;;;;13.57;9.10;;;;;;;15.65;93.00;101467.59;5029429;28;20057;-67
2021/08/21 05:20:42;;;;;;;13.65;7.80;;;;;;;15.71;93.13;101467.44;5024680;28;20063;-67
2021/08/21 05:23:14;;;;;;;10.75;8.07;;;;;;;15.79;92.81;101465.44;5037970;28;20049;-68
2021/08/21 05:25:41;;;;;;;15.52;8.45;;;;;;;15.84;93.01;101465.34;5035379;28;21385;-67
2021/08/21 05:28:10;;;;;;;15.25;8.25;;;;;;;15.92;92.44;101462.50;5026863;28;20132;-66
2021/08/21 05:30:39;;;;;;;13.88;8.70;;;;;;;15.94;92.32;101463.28;5026702;28;20045;-66
2021/08/21 05:33:09;;;;;;;15.68;8.20;;;;;;;15.93;92.37;101472.06;5030906;28;20128;-66
2021/08/21 05:35:35;;;;;;;16.15;8.63;;;;;;;15.97;92.46;101468.47;5026492;28;20129;-66
2021/08/21 05:38:02;;;;;;;12.32;8.20;;;;;;;15.96;92.78;101470.22;5030933;28;20458;-66
2021/08/21 05:40:28;;;;;;;14.82;8.02;;;;;;;15.98;92.96;101470.19;5028773;28;20049;-66
2021/08/21 05:42:54;;;;;;;18.52;8.90;;;;;;;16.06;92.53;101477.81;5020818;28;20427;-67
2021/08/21 05:45:22;;;;;;;14.57;9.60;;;;;;;16.11;92.57;101458.41;5026096;28;20104;-67
2021/08/21 05:47:49;;;;;;;14.68;9.00;;;;;;;16.12;92.67;101467.97;5032766;28;20056;-68
2021/08/21 05:50:15;;;;;;;15.77;8.50;;;;;;;16.14;92.76;101475.81;5032933;28;20507;-67
2021/08/21 05:52:42;;;;;;;13.40;8.80;;;;;;;16.13;93.06;101469.69;5027250;28;20402;-67
2021/08/21 05:55:09;;;;;;;17.65;9.98;;;;;;;16.14;93.19;101473.19;5026646;28;20510;-67
2021/08/21 05:57:36;;;;;;;14.48;9.05;;;;;;;16.20;93.14;101475.63;5025089;28;20089;-67
2021/08/21 06:00:02;;;;;;;15.73;9.30;;;;;;;16.25;93.06;101473.72;5027372;28;20103;-67
2021/08/21 06:02:30;;;;;;;14.23;9.70;;;;;;;16.28;93.08;101470.13;5027034;28;20052;-67
2021/08/21 06:04:57;;;;;;;14.73;9.63;;;;;;;16.36;93.05;101473.38;5031088;28;20073;-67
2021/08/21 06:07:23;;;;;;;16.52;9.40;;;;;;;16.42;93.02;101467.91;5023758;28;20056;-67
2021/08/21 06:09:50;;;;;;;15.73;9.15;;;;;;;16.41;92.90;101476.72;5030715;28;20490;-67
2021/08/21 06:12:16;;;;;;;16.10;9.27;;;;;;;16.40;93.14;101476.75;5027356;28;20056;-66
2021/08/21 06:14:44;;;;;;;15.82;9.45;;;;;;;16.45;93.32;101475.72;5024838;28;20187;-65
2021/08/21 06:17:11;;;;;;;15.20;9.05;;;;;;;16.52;93.29;101480.78;5029573;28;20057;-66
2021/08/21 06:19:39;;;;;;;15.13;8.90;;;;;;;16.59;92.96;101490.16;5028422;28;20068;-67
2021/08/21 06:22:06;;;;;;;15.68;9.55;;;;;;;16.66;92.76;101489.06;5034539;28;20141;-67
2021/08/21 06:24:33;;;;;;;16.10;9.70;;;;;;;16.69;92.75;101480.22;5026303;28;20049;-67
2021/08/21 06:27:00;;;;;;;18.33;8.93;;;;;;;16.71;92.67;101481.91;5029738;28;20042;-68
2021/08/21 06:29:26;;;;;;;15.60;10.85;;;;;;;16.73;92.76;101484.47;5031361;28;20079;-67
2021/08/21 06:31:53;;;;;;;16.67;9.32;;;;;;;16.73;92.95;101482.69;5027672;28;20115;-66
2021/08/21 06:34:19;;;;;;;12.93;9.85;;;;;;;16.78;92.89;101483.41;5024365;28;20050;-69
2021/08/21 06:36:47;;;;;;;16.80;9.13;;;;;;;16.81;93.01;101492.09;5025918;28;20053;-67
2021/08/21 06:39:14;;;;;;;17.45;10.00;;;;;;;16.82;93.13;101483.31;5032212;28;20071;-67
2021/08/21 06:41:40;;;;;;;16.30;9.50;;;;;;;16.87;93.31;101486.63;5024648;28;20052;-67
2021/08/21 06:44:06;;;;;;;12.75;8.63;;;;;;;16.93;93.26;101482.06;5022245;28;20061;-67
2021/08/21 06:46:33;;;;;;;13.82;8.68;;;;;;;16.99;93.07;101480.13;5030026;28;20144;-66
2021/08/21 06:48:59;;;;;;;15.82;9.70;;;;;;;17.05;93.08;101486.03;5034900;28;20058;-67
2021/08/21 06:51:26;;;;;;;13.02;8.25;;;;;;;17.12;93.20;101489.31;5022443;28;20049;-68
2021/08/21 06:53:54;;;;;;;13.13;8.73;;;;;;;17.22;92.95;101485.44;5029557;28;20073;-67
2021/08/21 06:56:20;;;;;;;16.65;9.60;;;;;;;17.27;92.67;101480.03;5029211;28;20049;-67
2021/08/21 06:58:47;;;;;;;13.35;9.55;;;;;;;17.36;92.77;101482.31;5023604;28;20049;-67
2021/08/21 07:01:13;;;;;;;14.45;8.68;;;;;;;17.48;92.38;101483.66;5023581;28;20045;-67
2021/08/21 07:03:40;;;;;;;18.33;8.50;;;;;;;17.62;91.76;101480.50;5021795;28;20049;-67
2021/08/21 07:06:06;;;;;;;15.02;8.82;;;;;;;17.75;91.39;101486.19;5028354;28;20056;-67
2021/08/21 07:08:33;;;;;;;12.60;8.45;;;;;;;17.85;90.83;101481.44;5032540;28;20136;-67
2021/08/21 07:11:02;;;;;;;12.63;8.18;;;;;;;17.93;90.56;101484.63;5030608;28;20502;-67
2021/08/21 07:13:28;;;;;;;14.80;9.00;;;;;;;18.08;90.27;101477.09;5023555;28;20052;-66
2021/08/21 07:15:55;;;;;;;12.15;8.07;;;;;;;18.26;88.92;101478.16;5026410;28;20091;-66
2021/08/21 07:18:21;;;;;;;15.15;9.10;;;;;;;18.37;88.66;101472.44;5024585;28;20049;-66
2021/08/21 07:20:48;;;;;;;17.60;10.40;;;;;;;18.46;87.95;101480.84;5025055;28;20038;-67
2021/08/21 07:23:14;;;;;;;16.17;9.32;;;;;;;18.55;87.43;101476.13;5025642;28;20049;-66
2021/08/21 07:25:42;;;;;;;15.23;9.10;;;;;;;18.60;86.66;101479.41;5019599;28;20531;-68
2021/08/21 07:28:10;;;;;;;15.32;8.60;;;;;;;18.64;86.64;101481.84;5032945;28;20518;-67
2021/08/21 07:30:37;;;;;;;12.80;8.57;;;;;;;18.63;86.67;101480.13;5030534;28;20140;-67
2021/08/21 07:33:03;;;;;;;13.88;9.85;;;;;;;18.65;86.81;101477.44;5027014;28;20052;-69
2021/08/21 07:35:30;;;;;;;14.80;8.73;;;;;;;18.75;86.42;101473.50;5028104;28;20049;-67
2021/08/21 07:37:57;;;;;;;12.55;8.80;;;;;;;18.79;85.77;101472.44;5021231;28;20997;-68
2021/08/21 07:40:23;;;;;;;14.38;9.55;;;;;;;18.67;86.48;101475.59;5021954;28;20053;-68
2021/08/21 07:42:50;;;;;;;15.00;9.73;;;;;;;18.72;86.92;101473.63;5023542;28;20045;-67
2021/08/21 07:45:17;;;;;;;13.02;9.35;;;;;;;18.84;86.93;101474.03;5018801;28;20400;-67
2021/08/21 07:47:49;;;;;;;14.27;10.50;;;;;;;18.79;86.73;101479.50;5031862;28;20068;-67
2021/08/21 07:50:15;;;;;;;19.85;10.50;;;;;;;18.82;86.51;101473.25;5027838;28;20148;-68
2021/08/21 07:52:44;;;;;;;15.85;10.65;;;;;;;18.93;86.63;101477.16;5019898;28;20041;-65
2021/08/21 07:55:10;;;;;;;15.05;9.45;;;;;;;19.02;86.22;101480.31;5020974;28;20045;-66
2021/08/21 07:57:37;;;;;;;15.35;9.27;;;;;;;19.11;86.11;101495.78;5027987;28;20506;-67
2021/08/21 08:00:04;;;;;;;17.33;11.43;;;;;;;19.15;85.42;101488.59;5024143;28;20919;-68
2021/08/21 08:02:32;;;;;;;15.93;10.75;;;;;;;19.15;85.29;101494.69;5032308;28;20115;-67
2021/08/21 08:04:59;;;;;;;17.05;11.27;;;;;;;19.17;85.41;101487.59;5029141;28;20160;-68
2021/08/21 08:07:25;;;;;;;18.45;11.52;;;;;;;19.14;85.43;101490.34;5025294;28;20103;-69
2021/08/21 08:09:52;;;;;;;16.63;12.70;;;;;;;19.19;85.77;101496.28;5027634;28;20061;-68
2021/08/21 08:12:18;;;;;;;19.17;10.85;;;;;;;19.29;85.70;101488.81;5023040;28;20061;-68
2021/08/21 08:14:45;;;;;;;18.98;12.00;;;;;;;19.39;85.63;101489.28;5023588;28;20049;-68
2021/08/21 08:17:11;;;;;;;15.77;11.05;;;;;;;19.51;85.57;101488.75;5026237;28;20087;-65
2021/08/21 08:19:39;;;;;;;15.23;11.70;;;;;;;19.72;85.36;101484.25;5030561;28;20044;-67
2021/08/21 08:22:05;;;;;;;18.58;12.10;;;;;;;19.88;83.98;101487.09;5023644;28;20079;-68
2021/08/21 08:24:32;;;;;;;16.10;11.63;;;;;;;20.16;82.51;101485.78;5023200;28;20060;-67
2021/08/21 08:26:59;;;;;;;15.35;10.27;;;;;;;20.26;81.59;101486.22;5027987;28;20133;-69
2021/08/21 08:29:25;;;;;;;15.85;10.02;;;;;;;20.60;80.44;101494.28;5033248;28;20080;-70
2021/08/21 08:31:51;;;;;;;13.35;9.50;;;;;;;20.63;79.24;101491.47;5030585;28;20041;-68
2021/08/21 08:34:18;;;;;;;16.45;10.63;;;;;;;20.77;79.79;101489.03;5041396;28;20045;-68
2021/08/21 08:36:46;;;;;;;13.35;9.10;;;;;;;20.96;77.77;101482.81;5028618;28;20049;-68
2021/08/21 08:39:12;;;;;;;15.00;7.88;;;;;;;21.23;75.71;101484.94;5020930;28;20422;-67
2021/08/21 08:41:42;;;;;;;12.85;8.05;;;;;;;21.26;76.15;101482.16;5019198;28;20060;-68
2021/08/21 08:44:11;;;;;;;16.17;7.65;;;;;;;21.38;75.84;101484.16;5027370;28;20063;-67
2021/08/21 08:46:38;;;;;;;10.70;5.20;;;;;;;21.59;72.93;101486.63;5029212;28;20522;-66
2021/08/21 08:49:05;;;;;;;9.68;5.13;;;;;;;21.71;72.80;101488.56;5029919;28;20050;-67
2021/08/21 08:51:33;;;;;;;10.15;5.63;;;;;;;21.91;72.06;101486.63;5035434;28;20064;-66
2021/08/21 08:54:01;;;;;;;9.45;5.50;;;;;;;21.96;70.16;101489.06;5028505;28;20202;-66
2021/08/21 08:56:28;;;;;;;11.25;5.70;;;;;;;22.01;69.95;101490.47;5032214;28;20045;-67
2021/08/21 08:58:54;;;;;;;9.35;5.70;;;;;;;21.97;69.53;101494.25;5031530;28;20061;-65
2021/08/21 09:01:21;;;;;;;10.95;5.72;;;;;;;21.97;69.51;101494.25;5017473;28;20045;-67
2021/08/21 09:03:48;;;;;;;9.77;6.65;;;;;;;21.94;69.71;101491.75;5023122;28;20404;-69
2021/08/21 09:06:15;;;;;;;12.48;5.82;;;;;;;22.04;69.61;101495.63;5022940;28;20775;-66
2021/08/21 09:08:41;;;;;;;11.45;6.97;;;;;;;22.16;67.47;101493.22;5026481;28;20057;-68
2021/08/21 09:11:21;;;;;;;11.65;6.05;;;;;;;22.06;68.87;101492.88;5023300;28;20045;-68
2021/08/21 09:13:47;;;;;;;10.30;6.68;;;;;;;22.07;69.33;101491.09;5028431;28;20045;-67
2021/08/21 09:16:25;;;;;;;11.63;5.63;;;;;;;22.08;69.57;101490.16;5026420;28;20055;-67
2021/08/21 09:19:04;;;;;;;13.10;6.90;;;;;;;22.07;66.98;101477.84;5037134;28;20099;-69
2021/08/21 09:21:30;;;;;;;13.07;6.93;;;;;;;22.20;66.38;101485.00;5034080;28;20121;-69
2021/08/21 09:23:57;;;;;;;11.65;7.13;;;;;;;22.11;67.64;101479.41;5032705;28;20049;-68
2021/08/21 09:26:30;;;;;;;10.45;6.55;;;;;;;22.38;65.45;101478.75;5031347;28;20053;-66
2021/08/21 09:28:59;;;;;;;12.57;7.03;;;;;;;22.43;64.92;101480.22;5037540;28;20045;-67
2021/08/21 09:31:30;;;;;;;10.70;6.65;;;;;;;22.34;64.18;101475.44;5030556;28;20136;-67
2021/08/21 09:33:59;;;;;;;11.52;6.32;;;;;;;22.25;66.13;101476.81;5033603;28;20046;-67
2021/08/21 09:36:29;;;;;;;11.73;5.82;;;;;;;22.42;66.39;101472.34;5035918;28;20139;-68
2021/08/21 09:38:56;;;;;;;9.43;5.50;;;;;;;22.52;63.41;101470.88;5029351;28;20045;-67
2021/08/21 09:41:22;;;;;;;10.35;5.28;;;;;;;22.59;64.50;101469.59;5027837;28;20049;-67
2021/08/21 09:44:03;;;;;;;9.65;5.68;;;;;;;22.55;65.46;101473.34;5028030;28;20045;-67
2021/08/21 09:46:30;;;;;;;12.98;5.78;;;;;;;22.55;65.15;101478.66;5025160;28;20049;-65
2021/08/21 09:48:58;;;;;;;9.65;6.22;;;;;;;22.44;64.13;101471.34;5031423;28;20048;-66
2021/08/21 09:51:33;;;;;;;9.63;5.40;;;;;;;22.45;65.05;101464.22;5025883;28;20049;-67
2021/08/21 09:54:01;;;;;;;9.82;6.38;;;;;;;22.61;65.43;101464.19;5029303;28;20049;-67
2021/08/21 09:56:31;;;;;;;14.27;6.82;;;;;;;22.65;63.91;101458.63;5033596;28;20422;-67
2021/08/21 09:59:00;;;;;;;10.05;6.68;;;;;;;22.60;64.22;101459.84;5031220;28;20132;-67
2021/08/21 10:01:28;;;;;;;9.02;5.72;;;;;;;22.54;64.38;101453.09;5037709;28;20045;-67
2021/08/21 10:03:55;;;;;;;8.77;4.75;;;;;;;22.80;63.40;101458.66;5031086;28;20075;-68
2021/08/21 10:06:23;;;;;;;11.25;5.63;;;;;;;22.67;64.06;101451.44;5029642;28;20058;-68
2021/08/21 10:08:53;;;;;;;10.43;4.97;;;;;;;22.73;64.85;101459.97;5035989;28;20053;-68
2021/08/21 10:11:20;;;;;;;8.73;4.85;;;;;;;22.79;63.86;101454.31;5039346;28;20068;-68
2021/08/21 10:13:48;;;;;;;9.40;4.28;;;;;;;22.89;64.19;101450.16;5033179;28;20061;-67
2021/08/21 10:16:16;;;;;;;8.70;4.30;;;;;;;23.05;63.31;101449.22;5030304;28;20046;-68
2021/08/21 10:18:43;;;;;;;8.40;3.70;;;;;;;23.03;63.11;101453.75;5033257;28;20079;-67
2021/08/21 10:21:09;;;;;;;8.30;4.03;;;;;;;23.07;63.06;101457.94;5030375;28;20045;-67
2021/08/21 10:23:42;;;;;;;8.35;4.88;;;;;;;22.98;63.22;101456.69;5032305;28;20091;-68
2021/08/21 10:26:15;;;;;;;8.95;4.43;;;;;;;22.99;63.63;101461.06;5034202;28;20041;-66
2021/08/21 10:28:42;;;;;;;5.93;3.08;;;;;;;23.15;62.16;101453.03;5036636;28;20083;-67
2021/08/21 10:31:11;;;;;;;5.18;2.63;;;;;;;23.27;61.85;101459.41;5037284;28;20045;-67
2021/08/21 10:33:56;;;;;;;6.50;2.50;;;;;;;23.43;60.74;101454.88;5030587;28;20123;-68
2021/08/21 10:36:42;;;;;;;7.45;2.50;;;;;;;23.50;60.12;101452.69;5037393;28;20045;-69
2021/08/21 10:39:17;;;;;;;5.88;2.40;;;;;;;23.63;59.39;101451.88;5027875;28;20454;-68
2021/08/21 10:41:44;;;;;;;5.07;2.47;;;;;;;23.60;57.95;101450.28;5026496;28;20396;-67
2021/08/21 10:44:11;;;;;;;5.55;2.60;;;;;;;23.65;58.54;101452.66;5036046;28;20799;-67
2021/08/21 10:46:54;;;;;;;4.78;2.33;;;;;;;23.68;58.19;101447.16;5032406;28;20105;-67
2021/08/21 10:49:49;;;;;;;4.07;2.35;;;;;;;23.72;57.19;101446.00;5030056;28;20049;-68
2021/08/21 10:52:48;;;;;;;4.20;1.80;;;;;;;23.85;56.27;101454.06;5008193;28;20049;-68
2021/08/21 10:55:17;;;;;;;3.60;1.70;;;;;;;23.77;55.90;101454.53;5033175;28;20140;-67
2021/08/21 10:58:02;;;;;;;4.70;2.08;;;;;;;23.73;56.65;101442.38;5034975;28;20049;-67
2021/08/21 11:01:01;;;;;;;5.85;2.05;;;;;;;23.81;56.88;101448.06;5034136;28;20087;-68
2021/08/21 11:03:44;;;;;;;5.80;2.05;;;;;;;23.91;55.91;101448.34;5030786;28;20041;-67
2021/08/21 11:06:14;;;;;;;5.90;2.30;;;;;;;23.81;54.60;101437.44;5028919;28;20052;-68
2021/08/21 11:09:11;;;;;;;4.47;2.00;;;;;;;23.88;55.53;101437.88;5025440;28;20525;-67
2021/08/21 11:11:42;;;;;;;4.53;1.70;;;;;;;24.00;55.49;101430.97;4989515;28;20542;-68
2021/08/21 11:14:25;;;;;;;7.82;3.20;;;;;;;24.01;56.86;101428.22;5024259;28;20523;-67
2021/08/21 11:16:54;;;;;;;3.58;1.48;;;;;;;24.21;54.69;101426.88;5033455;28;20483;-68
2021/08/21 11:19:38;;;;;;;3.75;1.40;;;;;;;24.28;55.00;101429.16;5027760;28;20054;-67
2021/08/21 11:22:21;;;;;;;4.32;1.55;;;;;;;24.52;53.15;101416.84;5029302;28;20080;-69
2021/08/21 11:25:12;;;;;;;3.38;1.40;;;;;;;24.40;54.41;101417.72;5027638;28;20083;-67